sensor_id;sensor_type;location;lat;lon;timestamp;temperature;humidity
23544;DHT22;11950;51.230;4.012;2022-12-18T00:01:21;-1.20;99.90
23544;DHT22;11950;51.230;4.012;2022-12-18T00:03:48;-1.10;99.90
23544;DHT22;11950;51.230;4.012;2022-12-18T00:06:15;-1.20;99.90
23544;DHT22;11950;51.230;4.012;2022-12-18T00:08:42;-1.10;99.90
23544;DHT22;11950;51.230;4.012;2022-12-18T00:11:12;-1.10;99.90
23544;DHT22;11950;51.230;4.012;2022-12-18T00:13:39;-1.20;99.90
23544;DHT22;11950;51.230;4.012;2022-12-18T00:16:07;-0.90;99.90
23544;DHT22;11950;51.230;4.012;2022-12-18T00:18:34;-1.10;99.90
23544;DHT22;11950;51.230;4.012;2022-12-18T00:21:06;-1.00;99.90
23544;DHT22;11950;51.230;4.012;2022-12-18T00:23:34;-1.00;99.90
23544;DHT22;11950;51.230;4.012;2022-12-18T00:26:08;-1.10;99.90
23544;DHT22;11950;51.230;4.012;2022-12-18T00:28:36;-1.20;99.90
23544;DHT22;11950;51.230;4.012;2022-12-18T00:31:02;-1.20;99.90
23544;DHT22;11950;51.230;4.012;2022-12-18T00:33:29;-1.00;99.90
23544;DHT22;11950;51.230;4.012;2022-12-18T00:36:01;-0.80;99.90
23544;DHT22;11950;51.230;4.012;2022-12-18T00:38:28;-0.80;99.90
23544;DHT22;11950;51.230;4.012;2022-12-18T00:40:54;-1.00;99.90
23544;DHT22;11950;51.230;4.012;2022-12-18T00:43:20;-1.30;99.90
23544;DHT22;11950;51.230;4.012;2022-12-18T00:45:46;-1.40;99.90
23544;DHT22;11950;51.230;4.012;2022-12-18T00:48:13;-1.30;99.90
23544;DHT22;11950;51.230;4.012;2022-12-18T00:50:39;-1.30;99.90
23544;DHT22;11950;51.230;4.012;2022-12-18T00:53:05;-1.30;99.90
23544;DHT22;11950;51.230;4.012;2022-12-18T00:55:32;-1.30;99.90
23544;DHT22;11950;51.230;4.012;2022-12-18T00:57:58;-1.30;99.90
23544;DHT22;11950;51.230;4.012;2022-12-18T01:00:24;-1.30;99.90
23544;DHT22;11950;51.230;4.012;2022-12-18T01:02:51;-1.40;99.90
23544;DHT22;11950;51.230;4.012;2022-12-18T01:05:17;-1.40;99.90
23544;DHT22;11950;51.230;4.012;2022-12-18T01:07:43;-1.40;99.90
23544;DHT22;11950;51.230;4.012;2022-12-18T01:10:11;-1.40;99.90
23544;DHT22;11950;51.230;4.012;2022-12-18T01:12:38;-1.40;99.90
23544;DHT22;11950;51.230;4.012;2022-12-18T01:15:06;-1.40;99.90
23544;DHT22;11950;51.230;4.012;2022-12-18T01:17:33;-1.40;99.90
23544;DHT22;11950;51.230;4.012;2022-12-18T01:20:00;-1.40;99.90
23544;DHT22;11950;51.230;4.012;2022-12-18T01:22:27;-1.40;99.90
23544;DHT22;11950;51.230;4.012;2022-12-18T01:24:53;-1.20;99.90
23544;DHT22;11950;51.230;4.012;2022-12-18T01:27:22;-1.40;99.90
23544;DHT22;11950;51.230;4.012;2022-12-18T01:29:49;-1.50;99.90
23544;DHT22;11950;51.230;4.012;2022-12-18T01:32:15;-1.50;99.90
23544;DHT22;11950;51.230;4.012;2022-12-18T01:34:42;-1.50;99.90
23544;DHT22;11950;51.230;4.012;2022-12-18T01:37:08;-1.10;99.90
23544;DHT22;11950;51.230;4.012;2022-12-18T01:39:34;-1.40;99.90
23544;DHT22;11950;51.230;4.012;2022-12-18T01:42:03;-1.40;99.90
23544;DHT22;11950;51.230;4.012;2022-12-18T01:47:34;-1.50;99.90
23544;DHT22;11950;51.230;4.012;2022-12-18T01:50:11;-1.50;99.90
23544;DHT22;11950;51.230;4.012;2022-12-18T01:52:45;-1.50;99.90
23544;DHT22;11950;51.230;4.012;2022-12-18T01:55:16;-1.60;99.90
23544;DHT22;11950;51.230;4.012;2022-12-18T01:57:43;-1.70;99.90
23544;DHT22;11950;51.230;4.012;2022-12-18T02:00:16;-1.80;99.90
23544;DHT22;11950;51.230;4.012;2022-12-18T02:02:44;-1.80;99.90
23544;DHT22;11950;51.230;4.012;2022-12-18T02:05:18;-1.80;99.90
23544;DHT22;11950;51.230;4.012;2022-12-18T02:07:52;-1.90;99.90
23544;DHT22;11950;51.230;4.012;2022-12-18T02:10:45;-1.30;99.90
23544;DHT22;11950;51.230;4.012;2022-12-18T02:13:26;-1.50;99.90
23544;DHT22;11950;51.230;4.012;2022-12-18T02:16:07;-1.90;99.90
23544;DHT22;11950;51.230;4.012;2022-12-18T02:18:38;-1.90;99.90
23544;DHT22;11950;51.230;4.012;2022-12-18T02:21:36;-1.90;99.90
23544;DHT22;11950;51.230;4.012;2022-12-18T02:24:16;-1.90;99.90
23544;DHT22;11950;51.230;4.012;2022-12-18T02:26:56;-1.90;99.90
23544;DHT22;11950;51.230;4.012;2022-12-18T02:32:04;-1.80;99.90
23544;DHT22;11950;51.230;4.012;2022-12-18T02:34:34;-1.90;99.90
23544;DHT22;11950;51.230;4.012;2022-12-18T02:37:05;-1.80;99.90
23544;DHT22;11950;51.230;4.012;2022-12-18T02:39:38;-1.80;99.90
23544;DHT22;11950;51.230;4.012;2022-12-18T02:42:04;-0.10;99.90
23544;DHT22;11950;51.230;4.012;2022-12-18T02:44:46;-1.70;99.90
23544;DHT22;11950;51.230;4.012;2022-12-18T02:47:18;-1.80;99.90
23544;DHT22;11950;51.230;4.012;2022-12-18T02:53:00;-1.80;99.90
23544;DHT22;11950;51.230;4.012;2022-12-18T02:58:23;-1.70;99.90
23544;DHT22;11950;51.230;4.012;2022-12-18T03:01:02;-1.70;99.90
23544;DHT22;11950;51.230;4.012;2022-12-18T03:03:38;-1.70;99.90
23544;DHT22;11950;51.230;4.012;2022-12-18T03:06:08;-1.80;99.90
23544;DHT22;11950;51.230;4.012;2022-12-18T03:08:38;-1.30;99.90
23544;DHT22;11950;51.230;4.012;2022-12-18T03:11:08;-1.80;99.90
23544;DHT22;11950;51.230;4.012;2022-12-18T03:13:45;0.00;99.90
23544;DHT22;11950;51.230;4.012;2022-12-18T03:16:25;-1.70;99.90
23544;DHT22;11950;51.230;4.012;2022-12-18T03:18:55;-1.70;99.90
23544;DHT22;11950;51.230;4.012;2022-12-18T03:21:40;-1.70;99.90
23544;DHT22;11950;51.230;4.012;2022-12-18T03:24:09;-1.70;99.90
23544;DHT22;11950;51.230;4.012;2022-12-18T03:26:41;-1.80;99.90
23544;DHT22;11950;51.230;4.012;2022-12-18T03:29:19;-2.00;99.90
23544;DHT22;11950;51.230;4.012;2022-12-18T03:31:57;-1.90;99.90
23544;DHT22;11950;51.230;4.012;2022-12-18T03:34:33;-1.80;99.90
23544;DHT22;11950;51.230;4.012;2022-12-18T03:37:03;-1.80;99.90
23544;DHT22;11950;51.230;4.012;2022-12-18T03:39:31;-2.10;99.90
23544;DHT22;11950;51.230;4.012;2022-12-18T03:42:01;-1.20;99.90
23544;DHT22;11950;51.230;4.012;2022-12-18T03:50:13;-2.00;99.90
23544;DHT22;11950;51.230;4.012;2022-12-18T03:55:32;-2.00;99.90
23544;DHT22;11950;51.230;4.012;2022-12-18T03:58:04;-2.00;99.90
23544;DHT22;11950;51.230;4.012;2022-12-18T04:00:43;-2.10;99.90
23544;DHT22;11950;51.230;4.012;2022-12-18T04:03:11;-1.80;99.90
23544;DHT22;11950;51.230;4.012;2022-12-18T04:05:48;-2.00;99.90
23544;DHT22;11950;51.230;4.012;2022-12-18T04:08:19;-2.00;99.90
23544;DHT22;11950;51.230;4.012;2022-12-18T04:10:55;-1.90;99.90
23544;DHT22;11950;51.230;4.012;2022-12-18T04:13:29;-1.90;99.90
23544;DHT22;11950;51.230;4.012;2022-12-18T04:15:59;-0.60;99.90
23544;DHT22;11950;51.230;4.012;2022-12-18T04:18:27;-1.90;99.90
23544;DHT22;11950;51.230;4.012;2022-12-18T04:20:53;-2.10;99.90
23544;DHT22;11950;51.230;4.012;2022-12-18T04:23:20;-2.10;99.90
23544;DHT22;11950;51.230;4.012;2022-12-18T04:25:47;-1.50;99.90
23544;DHT22;11950;51.230;4.012;2022-12-18T04:28:20;-1.80;99.90
23544;DHT22;11950;51.230;4.012;2022-12-18T04:30:47;-1.90;99.90
23544;DHT22;11950;51.230;4.012;2022-12-18T04:33:13;-1.00;99.90
23544;DHT22;11950;51.230;4.012;2022-12-18T04:35:42;-1.30;99.90
23544;DHT22;11950;51.230;4.012;2022-12-18T04:38:09;-2.10;99.90
23544;DHT22;11950;51.230;4.012;2022-12-18T04:40:37;-2.20;99.90
23544;DHT22;11950;51.230;4.012;2022-12-18T04:43:09;-2.30;99.90
23544;DHT22;11950;51.230;4.012;2022-12-18T04:45:35;-2.20;99.90
23544;DHT22;11950;51.230;4.012;2022-12-18T04:48:02;-1.90;99.90
23544;DHT22;11950;51.230;4.012;2022-12-18T04:50:29;-2.20;99.90
23544;DHT22;11950;51.230;4.012;2022-12-18T04:52:56;-1.80;99.90
23544;DHT22;11950;51.230;4.012;2022-12-18T04:55:23;-2.10;99.90
23544;DHT22;11950;51.230;4.012;2022-12-18T04:57:49;-2.20;99.90
23544;DHT22;11950;51.230;4.012;2022-12-18T05:00:15;-2.10;99.90
23544;DHT22;11950;51.230;4.012;2022-12-18T05:02:42;-2.10;99.90
23544;DHT22;11950;51.230;4.012;2022-12-18T05:05:08;-1.80;99.90
23544;DHT22;11950;51.230;4.012;2022-12-18T05:07:35;-2.00;99.90
23544;DHT22;11950;51.230;4.012;2022-12-18T05:10:01;-2.00;99.90
23544;DHT22;11950;51.230;4.012;2022-12-18T05:12:28;-2.00;99.90
23544;DHT22;11950;51.230;4.012;2022-12-18T05:14:54;-2.00;99.90
23544;DHT22;11950;51.230;4.012;2022-12-18T05:17:21;-2.20;99.90
23544;DHT22;11950;51.230;4.012;2022-12-18T05:19:47;-2.20;99.90
23544;DHT22;11950;51.230;4.012;2022-12-18T05:22:13;-2.20;99.90
23544;DHT22;11950;51.230;4.012;2022-12-18T05:24:39;-2.10;99.90
23544;DHT22;11950;51.230;4.012;2022-12-18T05:27:06;-2.00;99.90
23544;DHT22;11950;51.230;4.012;2022-12-18T05:29:32;-2.00;99.90
23544;DHT22;11950;51.230;4.012;2022-12-18T05:31:58;-2.10;99.90
23544;DHT22;11950;51.230;4.012;2022-12-18T05:34:24;-1.60;99.90
23544;DHT22;11950;51.230;4.012;2022-12-18T05:36:51;-2.00;99.90
23544;DHT22;11950;51.230;4.012;2022-12-18T05:39:17;-1.90;99.90
23544;DHT22;11950;51.230;4.012;2022-12-18T05:41:43;-1.90;99.90
23544;DHT22;11950;51.230;4.012;2022-12-18T05:44:09;-1.90;99.90
23544;DHT22;11950;51.230;4.012;2022-12-18T05:46:36;-1.70;99.90
23544;DHT22;11950;51.230;4.012;2022-12-18T05:49:02;-2.00;99.90
23544;DHT22;11950;51.230;4.012;2022-12-18T05:51:28;-1.90;99.90
23544;DHT22;11950;51.230;4.012;2022-12-18T05:53:55;-1.90;99.90
23544;DHT22;11950;51.230;4.012;2022-12-18T05:56:22;-0.30;99.90
23544;DHT22;11950;51.230;4.012;2022-12-18T05:58:52;-2.00;99.90
23544;DHT22;11950;51.230;4.012;2022-12-18T06:01:25;-2.00;99.90
23544;DHT22;11950;51.230;4.012;2022-12-18T06:03:52;-2.00;99.90
23544;DHT22;11950;51.230;4.012;2022-12-18T06:06:20;-2.00;99.90
23544;DHT22;11950;51.230;4.012;2022-12-18T06:08:46;-2.30;99.90
23544;DHT22;11950;51.230;4.012;2022-12-18T06:11:15;-2.40;99.90
23544;DHT22;11950;51.230;4.012;2022-12-18T06:13:42;-2.50;99.90
23544;DHT22;11950;51.230;4.012;2022-12-18T06:16:08;-1.80;99.90
23544;DHT22;11950;51.230;4.012;2022-12-18T06:18:34;-1.90;99.90
23544;DHT22;11950;51.230;4.012;2022-12-18T06:21:01;-1.70;99.90
23544;DHT22;11950;51.230;4.012;2022-12-18T06:23:28;-2.50;99.90
23544;DHT22;11950;51.230;4.012;2022-12-18T06:25:54;-2.60;99.90
23544;DHT22;11950;51.230;4.012;2022-12-18T06:28:20;-2.70;99.90
23544;DHT22;11950;51.230;4.012;2022-12-18T06:30:47;-1.60;99.90
23544;DHT22;11950;51.230;4.012;2022-12-18T06:33:15;-1.90;99.90
23544;DHT22;11950;51.230;4.012;2022-12-18T06:35:41;-2.80;99.90
23544;DHT22;11950;51.230;4.012;2022-12-18T06:38:08;-2.80;99.90
23544;DHT22;11950;51.230;4.012;2022-12-18T06:40:37;-1.70;99.90
23544;DHT22;11950;51.230;4.012;2022-12-18T06:43:04;-2.50;99.90
23544;DHT22;11950;51.230;4.012;2022-12-18T06:45:30;-2.90;99.90
23544;DHT22;11950;51.230;4.012;2022-12-18T06:47:57;-2.80;99.90
23544;DHT22;11950;51.230;4.012;2022-12-18T06:50:23;-2.80;99.90
23544;DHT22;11950;51.230;4.012;2022-12-18T06:52:49;-2.70;99.90
23544;DHT22;11950;51.230;4.012;2022-12-18T06:55:15;-2.60;99.90
23544;DHT22;11950;51.230;4.012;2022-12-18T06:57:42;-2.50;99.90
23544;DHT22;11950;51.230;4.012;2022-12-18T07:00:08;-2.50;99.90
23544;DHT22;11950;51.230;4.012;2022-12-18T07:02:35;-2.50;99.90
23544;DHT22;11950;51.230;4.012;2022-12-18T07:05:02;-2.50;99.90
23544;DHT22;11950;51.230;4.012;2022-12-18T07:07:28;-2.50;99.90
23544;DHT22;11950;51.230;4.012;2022-12-18T07:09:55;-1.40;99.90
23544;DHT22;11950;51.230;4.012;2022-12-18T07:12:21;-2.30;99.90
23544;DHT22;11950;51.230;4.012;2022-12-18T07:14:47;-2.10;99.90
23544;DHT22;11950;51.230;4.012;2022-12-18T07:17:13;-2.30;99.90
23544;DHT22;11950;51.230;4.012;2022-12-18T07:19:39;-2.20;99.90
23544;DHT22;11950;51.230;4.012;2022-12-18T07:22:06;-1.70;99.90
23544;DHT22;11950;51.230;4.012;2022-12-18T07:24:33;-2.00;99.90
23544;DHT22;11950;51.230;4.012;2022-12-18T07:27:00;-2.10;99.90
23544;DHT22;11950;51.230;4.012;2022-12-18T07:29:26;-2.10;99.90
23544;DHT22;11950;51.230;4.012;2022-12-18T07:31:52;-2.10;99.90
23544;DHT22;11950;51.230;4.012;2022-12-18T07:34:18;-2.00;99.90
23544;DHT22;11950;51.230;4.012;2022-12-18T07:36:45;-1.20;99.90
23544;DHT22;11950;51.230;4.012;2022-12-18T07:39:11;-2.00;99.90
23544;DHT22;11950;51.230;4.012;2022-12-18T07:41:38;-2.00;99.90
23544;DHT22;11950;51.230;4.012;2022-12-18T07:44:12;-1.90;99.90
23544;DHT22;11950;51.230;4.012;2022-12-18T07:46:38;-1.90;99.90
23544;DHT22;11950;51.230;4.012;2022-12-18T07:49:05;-1.90;99.90
23544;DHT22;11950;51.230;4.012;2022-12-18T07:51:31;-2.00;99.90
23544;DHT22;11950;51.230;4.012;2022-12-18T07:53:57;-1.70;99.90
23544;DHT22;11950;51.230;4.012;2022-12-18T07:56:24;-1.90;99.90
23544;DHT22;11950;51.230;4.012;2022-12-18T07:58:50;-2.00;99.90
23544;DHT22;11950;51.230;4.012;2022-12-18T08:01:16;-1.90;99.90
23544;DHT22;11950;51.230;4.012;2022-12-18T08:03:42;0.10;99.90
23544;DHT22;11950;51.230;4.012;2022-12-18T08:06:09;-1.90;99.90
23544;DHT22;11950;51.230;4.012;2022-12-18T08:08:35;-1.90;99.90
23544;DHT22;11950;51.230;4.012;2022-12-18T08:11:02;-1.80;99.90
23544;DHT22;11950;51.230;4.012;2022-12-18T08:13:28;-1.80;99.90
23544;DHT22;11950;51.230;4.012;2022-12-18T08:16:06;-1.20;99.90
23544;DHT22;11950;51.230;4.012;2022-12-18T08:18:34;-4.00;99.90
23544;DHT22;11950;51.230;4.012;2022-12-18T08:21:20;-1.60;99.90
23544;DHT22;11950;51.230;4.012;2022-12-18T08:23:50;-1.70;99.90
23544;DHT22;11950;51.230;4.012;2022-12-18T08:26:16;-0.70;99.90
23544;DHT22;11950;51.230;4.012;2022-12-18T08:28:43;-1.60;99.90
23544;DHT22;11950;51.230;4.012;2022-12-18T08:31:09;-0.50;99.90
23544;DHT22;11950;51.230;4.012;2022-12-18T08:33:37;-0.70;99.90
23544;DHT22;11950;51.230;4.012;2022-12-18T08:36:04;-1.40;99.90
23544;DHT22;11950;51.230;4.012;2022-12-18T08:38:35;-1.50;99.90
23544;DHT22;11950;51.230;4.012;2022-12-18T08:41:10;-1.40;99.90
23544;DHT22;11950;51.230;4.012;2022-12-18T08:43:36;-1.10;99.90
23544;DHT22;11950;51.230;4.012;2022-12-18T08:46:23;-1.80;99.90
23544;DHT22;11950;51.230;4.012;2022-12-18T08:48:51;-1.30;99.90
23544;DHT22;11950;51.230;4.012;2022-12-18T08:51:18;-1.20;99.90
23544;DHT22;11950;51.230;4.012;2022-12-18T08:53:44;-1.30;99.90
23544;DHT22;11950;51.230;4.012;2022-12-18T08:56:12;-1.20;99.90
23544;DHT22;11950;51.230;4.012;2022-12-18T08:58:40;-0.50;99.90
23544;DHT22;11950;51.230;4.012;2022-12-18T09:01:09;-1.10;99.90
23544;DHT22;11950;51.230;4.012;2022-12-18T09:03:35;-1.10;99.90
23544;DHT22;11950;51.230;4.012;2022-12-18T09:06:02;-1.10;99.90
23544;DHT22;11950;51.230;4.012;2022-12-18T09:08:29;-1.10;99.90
23544;DHT22;11950;51.230;4.012;2022-12-18T09:10:55;-1.00;99.90
23544;DHT22;11950;51.230;4.012;2022-12-18T09:13:22;-1.00;99.90
23544;DHT22;11950;51.230;4.012;2022-12-18T09:15:50;-1.00;99.90
23544;DHT22;11950;51.230;4.012;2022-12-18T09:18:18;-0.90;99.90
23544;DHT22;11950;51.230;4.012;2022-12-18T09:20:45;-0.90;99.90
23544;DHT22;11950;51.230;4.012;2022-12-18T09:23:12;-0.80;99.90
23544;DHT22;11950;51.230;4.012;2022-12-18T09:25:39;-0.70;99.90
23544;DHT22;11950;51.230;4.012;2022-12-18T09:28:10;-0.70;99.90
23544;DHT22;11950;51.230;4.012;2022-12-18T09:30:41;-0.70;99.90
23544;DHT22;11950;51.230;4.012;2022-12-18T09:33:07;-0.70;99.90
23544;DHT22;11950;51.230;4.012;2022-12-18T09:35:38;-0.20;99.90
23544;DHT22;11950;51.230;4.012;2022-12-18T09:38:04;-0.60;99.90
23544;DHT22;11950;51.230;4.012;2022-12-18T09:40:45;-0.50;99.90
23544;DHT22;11950;51.230;4.012;2022-12-18T09:43:28;-0.40;99.90
23544;DHT22;11950;51.230;4.012;2022-12-18T09:46:01;-0.10;99.90
23544;DHT22;11950;51.230;4.012;2022-12-18T09:48:32;-0.40;99.90
23544;DHT22;11950;51.230;4.012;2022-12-18T09:51:05;-0.50;99.90
23544;DHT22;11950;51.230;4.012;2022-12-18T09:53:37;-0.40;99.90
23544;DHT22;11950;51.230;4.012;2022-12-18T09:56:05;-0.50;99.90
23544;DHT22;11950;51.230;4.012;2022-12-18T09:58:41;-0.40;99.90
23544;DHT22;11950;51.230;4.012;2022-12-18T10:01:13;-0.30;99.90
23544;DHT22;11950;51.230;4.012;2022-12-18T10:03:40;-0.40;99.90
23544;DHT22;11950;51.230;4.012;2022-12-18T10:06:15;-0.30;99.90
23544;DHT22;11950;51.230;4.012;2022-12-18T10:14:20;-0.20;99.90
23544;DHT22;11950;51.230;4.012;2022-12-18T10:20:01;0.00;99.90
23544;DHT22;11950;51.230;4.012;2022-12-18T10:22:53;0.00;99.90
23544;DHT22;11950;51.230;4.012;2022-12-18T10:25:50;0.00;99.90
23544;DHT22;11950;51.230;4.012;2022-12-18T10:28:19;0.10;99.90
23544;DHT22;11950;51.230;4.012;2022-12-18T10:30:46;0.00;99.90
23544;DHT22;11950;51.230;4.012;2022-12-18T10:33:21;2.20;99.90
23544;DHT22;11950;51.230;4.012;2022-12-18T10:35:50;0.00;99.90
23544;DHT22;11950;51.230;4.012;2022-12-18T10:41:01;0.20;99.90
23544;DHT22;11950;51.230;4.012;2022-12-18T10:43:29;0.20;99.90
23544;DHT22;11950;51.230;4.012;2022-12-18T10:48:55;0.30;99.90
23544;DHT22;11950;51.230;4.012;2022-12-18T10:51:27;0.30;99.90
23544;DHT22;11950;51.230;4.012;2022-12-18T10:56:24;0.40;99.90
23544;DHT22;11950;51.230;4.012;2022-12-18T10:59:11;0.40;99.90
23544;DHT22;11950;51.230;4.012;2022-12-18T11:06:55;0.40;99.90
23544;DHT22;11950;51.230;4.012;2022-12-18T11:09:27;0.60;99.90
23544;DHT22;11950;51.230;4.012;2022-12-18T11:11:56;0.60;99.90
23544;DHT22;11950;51.230;4.012;2022-12-18T11:14:32;0.60;99.90
23544;DHT22;11950;51.230;4.012;2022-12-18T11:17:00;0.70;99.90
23544;DHT22;11950;51.230;4.012;2022-12-18T11:21:59;0.70;99.90
23544;DHT22;11950;51.230;4.012;2022-12-18T11:26:53;0.80;99.90
23544;DHT22;11950;51.230;4.012;2022-12-18T11:29:34;0.80;99.90
23544;DHT22;11950;51.230;4.012;2022-12-18T11:32:34;0.80;99.90
23544;DHT22;11950;51.230;4.012;2022-12-18T11:37:56;0.80;99.90
23544;DHT22;11950;51.230;4.012;2022-12-18T11:40:51;1.20;99.90
23544;DHT22;11950;51.230;4.012;2022-12-18T11:43:28;0.90;99.90
23544;DHT22;11950;51.230;4.012;2022-12-18T11:46:00;1.00;99.90
23544;DHT22;11950;51.230;4.012;2022-12-18T11:48:37;1.20;99.90
23544;DHT22;11950;51.230;4.012;2022-12-18T11:51:11;1.40;99.90
23544;DHT22;11950;51.230;4.012;2022-12-18T11:53:38;1.00;99.90
23544;DHT22;11950;51.230;4.012;2022-12-18T11:56:32;1.00;99.90
23544;DHT22;11950;51.230;4.012;2022-12-18T12:01:48;1.10;99.90
23544;DHT22;11950;51.230;4.012;2022-12-18T12:10:12;1.20;99.90
23544;DHT22;11950;51.230;4.012;2022-12-18T12:13:37;1.20;99.90
23544;DHT22;11950;51.230;4.012;2022-12-18T12:26:58;1.20;99.90
23544;DHT22;11950;51.230;4.012;2022-12-18T12:29:35;1.30;99.90
23544;DHT22;11950;51.230;4.012;2022-12-18T12:40:07;1.30;99.90
23544;DHT22;11950;51.230;4.012;2022-12-18T12:42:44;1.80;99.90
23544;DHT22;11950;51.230;4.012;2022-12-18T12:45:45;1.40;99.90
23544;DHT22;11950;51.230;4.012;2022-12-18T12:48:31;1.70;99.90
23544;DHT22;11950;51.230;4.012;2022-12-18T12:51:01;1.50;99.90
23544;DHT22;11950;51.230;4.012;2022-12-18T12:53:34;1.50;99.90
23544;DHT22;11950;51.230;4.012;2022-12-18T12:56:02;1.40;99.90
23544;DHT22;11950;51.230;4.012;2022-12-18T13:01:25;1.50;99.90
23544;DHT22;11950;51.230;4.012;2022-12-18T13:07:11;1.60;99.90
23544;DHT22;11950;51.230;4.012;2022-12-18T13:10:19;1.60;99.90
23544;DHT22;11950;51.230;4.012;2022-12-18T13:13:14;1.60;99.90
23544;DHT22;11950;51.230;4.012;2022-12-18T13:15:48;1.60;99.90
23544;DHT22;11950;51.230;4.012;2022-12-18T13:18:22;1.60;99.90
23544;DHT22;11950;51.230;4.012;2022-12-18T13:20:51;1.70;99.90
23544;DHT22;11950;51.230;4.012;2022-12-18T13:23:35;1.90;99.90
23544;DHT22;11950;51.230;4.012;2022-12-18T13:26:50;1.70;99.90
23544;DHT22;11950;51.230;4.012;2022-12-18T13:28:59;1.70;99.90
23544;DHT22;11950;51.230;4.012;2022-12-18T13:34:28;1.70;99.90
23544;DHT22;11950;51.230;4.012;2022-12-18T13:36:57;2.10;99.90
23544;DHT22;11950;51.230;4.012;2022-12-18T13:39:42;1.80;99.90
23544;DHT22;11950;51.230;4.012;2022-12-18T13:44:40;1.80;99.90
23544;DHT22;11950;51.230;4.012;2022-12-18T13:49:52;2.00;99.90
23544;DHT22;11950;51.230;4.012;2022-12-18T13:52:25;1.90;99.90
23544;DHT22;11950;51.230;4.012;2022-12-18T13:54:56;1.90;99.90
23544;DHT22;11950;51.230;4.012;2022-12-18T13:57:29;2.00;99.90
23544;DHT22;11950;51.230;4.012;2022-12-18T13:59:56;2.00;99.90
23544;DHT22;11950;51.230;4.012;2022-12-18T14:02:26;1.90;99.90
23544;DHT22;11950;51.230;4.012;2022-12-18T14:04:53;1.90;99.90
23544;DHT22;11950;51.230;4.012;2022-12-18T14:07:26;2.10;99.90
23544;DHT22;11950;51.230;4.012;2022-12-18T14:09:58;2.00;99.90
23544;DHT22;11950;51.230;4.012;2022-12-18T14:12:29;2.10;99.90
23544;DHT22;11950;51.230;4.012;2022-12-18T14:17:57;1.90;99.90
23544;DHT22;11950;51.230;4.012;2022-12-18T14:20:24;1.90;99.90
23544;DHT22;11950;51.230;4.012;2022-12-18T14:22:51;2.00;99.90
23544;DHT22;11950;51.230;4.012;2022-12-18T14:25:21;2.00;99.90
23544;DHT22;11950;51.230;4.012;2022-12-18T14:28:12;2.10;99.90
23544;DHT22;11950;51.230;4.012;2022-12-18T14:30:44;2.00;99.90
23544;DHT22;11950;51.230;4.012;2022-12-18T14:33:11;2.00;99.90
23544;DHT22;11950;51.230;4.012;2022-12-18T14:36:03;2.00;99.90
23544;DHT22;11950;51.230;4.012;2022-12-18T14:38:37;2.10;99.90
23544;DHT22;11950;51.230;4.012;2022-12-18T14:41:06;2.10;99.90
23544;DHT22;11950;51.230;4.012;2022-12-18T14:43:38;2.20;99.90
23544;DHT22;11950;51.230;4.012;2022-12-18T14:46:06;2.10;99.90
23544;DHT22;11950;51.230;4.012;2022-12-18T14:48:50;2.20;99.90
23544;DHT22;11950;51.230;4.012;2022-12-18T14:51:22;2.40;99.90
23544;DHT22;11950;51.230;4.012;2022-12-18T14:54:00;2.20;99.90
23544;DHT22;11950;51.230;4.012;2022-12-18T14:56:34;2.20;99.90
23544;DHT22;11950;51.230;4.012;2022-12-18T14:59:04;2.20;99.90
23544;DHT22;11950;51.230;4.012;2022-12-18T15:01:37;2.40;99.90
23544;DHT22;11950;51.230;4.012;2022-12-18T15:04:27;2.30;99.90
23544;DHT22;11950;51.230;4.012;2022-12-18T15:09:29;2.50;99.90
23544;DHT22;11950;51.230;4.012;2022-12-18T15:11:57;2.30;99.90
23544;DHT22;11950;51.230;4.012;2022-12-18T15:16:58;2.50;99.90
23544;DHT22;11950;51.230;4.012;2022-12-18T15:19:36;2.20;99.90
23544;DHT22;11950;51.230;4.012;2022-12-18T15:22:03;2.40;99.90
23544;DHT22;11950;51.230;4.012;2022-12-18T15:24:31;2.50;99.90
23544;DHT22;11950;51.230;4.012;2022-12-18T15:26:59;2.60;99.90
23544;DHT22;11950;51.230;4.012;2022-12-18T15:29:26;2.40;99.90
23544;DHT22;11950;51.230;4.012;2022-12-18T15:32:04;2.50;99.90
23544;DHT22;11950;51.230;4.012;2022-12-18T15:34:31;2.30;99.90
23544;DHT22;11950;51.230;4.012;2022-12-18T15:36:57;2.50;99.90
23544;DHT22;11950;51.230;4.012;2022-12-18T15:39:24;2.40;99.90
23544;DHT22;11950;51.230;4.012;2022-12-18T15:41:50;2.40;99.90
23544;DHT22;11950;51.230;4.012;2022-12-18T15:44:35;2.50;99.90
23544;DHT22;11950;51.230;4.012;2022-12-18T15:47:02;2.40;99.90
23544;DHT22;11950;51.230;4.012;2022-12-18T15:49:28;2.30;99.90
23544;DHT22;11950;51.230;4.012;2022-12-18T15:51:58;5.30;99.90
23544;DHT22;11950;51.230;4.012;2022-12-18T15:54:26;2.40;99.90
23544;DHT22;11950;51.230;4.012;2022-12-18T15:57:11;2.60;99.90
23544;DHT22;11950;51.230;4.012;2022-12-18T15:59:55;2.90;99.90
23544;DHT22;11950;51.230;4.012;2022-12-18T16:02:24;2.90;99.90
23544;DHT22;11950;51.230;4.012;2022-12-18T16:04:51;2.50;99.90
23544;DHT22;11950;51.230;4.012;2022-12-18T16:07:18;2.40;99.90
23544;DHT22;11950;51.230;4.012;2022-12-18T16:09:44;2.50;99.90
23544;DHT22;11950;51.230;4.012;2022-12-18T16:12:16;2.40;99.90
23544;DHT22;11950;51.230;4.012;2022-12-18T16:14:43;2.50;99.90
23544;DHT22;11950;51.230;4.012;2022-12-18T16:17:10;2.40;99.90
23544;DHT22;11950;51.230;4.012;2022-12-18T16:19:37;2.40;99.90
23544;DHT22;11950;51.230;4.012;2022-12-18T16:22:04;2.50;99.90
23544;DHT22;11950;51.230;4.012;2022-12-18T16:24:32;2.50;99.90
23544;DHT22;11950;51.230;4.012;2022-12-18T16:27:00;2.50;99.90
23544;DHT22;11950;51.230;4.012;2022-12-18T16:29:28;2.50;99.90
23544;DHT22;11950;51.230;4.012;2022-12-18T16:31:59;2.90;99.90
23544;DHT22;11950;51.230;4.012;2022-12-18T16:34:28;2.50;99.90
23544;DHT22;11950;51.230;4.012;2022-12-18T16:37:04;2.50;99.90
23544;DHT22;11950;51.230;4.012;2022-12-18T16:39:31;2.50;99.90
23544;DHT22;11950;51.230;4.012;2022-12-18T16:41:57;2.60;99.90
23544;DHT22;11950;51.230;4.012;2022-12-18T16:44:24;2.60;99.90
23544;DHT22;11950;51.230;4.012;2022-12-18T16:46:50;2.70;99.90
23544;DHT22;11950;51.230;4.012;2022-12-18T16:49:17;2.70;99.90
23544;DHT22;11950;51.230;4.012;2022-12-18T16:51:45;2.70;99.90
23544;DHT22;11950;51.230;4.012;2022-12-18T16:54:12;2.90;99.90
23544;DHT22;11950;51.230;4.012;2022-12-18T16:56:38;2.90;99.90
23544;DHT22;11950;51.230;4.012;2022-12-18T16:59:05;2.70;99.90
23544;DHT22;11950;51.230;4.012;2022-12-18T17:01:31;3.30;99.90
23544;DHT22;11950;51.230;4.012;2022-12-18T17:04:00;3.30;99.90
23544;DHT22;11950;51.230;4.012;2022-12-18T17:06:28;2.80;99.90
23544;DHT22;11950;51.230;4.012;2022-12-18T17:08:59;2.80;99.90
23544;DHT22;11950;51.230;4.012;2022-12-18T17:11:27;2.80;99.90
23544;DHT22;11950;51.230;4.012;2022-12-18T17:13:54;2.80;99.90
23544;DHT22;11950;51.230;4.012;2022-12-18T17:16:21;2.70;99.90
23544;DHT22;11950;51.230;4.012;2022-12-18T17:18:48;2.90;99.90
23544;DHT22;11950;51.230;4.012;2022-12-18T17:21:15;2.80;99.90
23544;DHT22;11950;51.230;4.012;2022-12-18T17:23:43;2.90;99.90
23544;DHT22;11950;51.230;4.012;2022-12-18T17:26:11;2.70;99.90
23544;DHT22;11950;51.230;4.012;2022-12-18T17:28:39;2.80;99.90
23544;DHT22;11950;51.230;4.012;2022-12-18T17:31:15;2.70;99.90
23544;DHT22;11950;51.230;4.012;2022-12-18T17:33:42;2.90;99.90
23544;DHT22;11950;51.230;4.012;2022-12-18T17:36:09;3.00;99.90
23544;DHT22;11950;51.230;4.012;2022-12-18T17:38:36;3.10;99.90